sensor_id;sensor_type;location;lat;lon;timestamp;P1;durP1;ratioP1;P2;durP2;ratioP2
37955;SDS011;23776;51.592;7.180;2023-08-24T00:00:50;9.80;;;5.07;;
37955;SDS011;23776;51.592;7.180;2023-08-24T00:03:16;12.48;;;5.80;;
37955;SDS011;23776;51.592;7.180;2023-08-24T00:05:41;9.43;;;5.45;;
37955;SDS011;23776;51.592;7.180;2023-08-24T00:08:07;11.10;;;5.47;;
37955;SDS011;23776;51.592;7.180;2023-08-24T00:10:34;6.63;;;5.07;;
37955;SDS011;23776;51.592;7.180;2023-08-24T00:13:01;9.98;;;4.70;;
37955;SDS011;23776;51.592;7.180;2023-08-24T00:15:27;11.27;;;5.22;;
37955;SDS011;23776;51.592;7.180;2023-08-24T00:17:53;8.55;;;5.38;;
37955;SDS011;23776;51.592;7.180;2023-08-24T00:20:19;9.70;;;5.13;;
37955;SDS011;23776;51.592;7.180;2023-08-24T00:22:45;15.18;;;5.93;;
37955;SDS011;23776;51.592;7.180;2023-08-24T00:25:11;12.77;;;5.78;;
37955;SDS011;23776;51.592;7.180;2023-08-24T00:27:37;10.43;;;5.15;;
37955;SDS011;23776;51.592;7.180;2023-08-24T00:30:04;11.85;;;4.70;;
37955;SDS011;23776;51.592;7.180;2023-08-24T00:32:32;14.20;;;4.78;;
37955;SDS011;23776;51.592;7.180;2023-08-24T00:34:59;8.70;;;5.10;;
37955;SDS011;23776;51.592;7.180;2023-08-24T00:37:25;10.45;;;5.53;;
37955;SDS011;23776;51.592;7.180;2023-08-24T00:39:51;12.75;;;6.00;;
37955;SDS011;23776;51.592;7.180;2023-08-24T00:42:17;8.68;;;5.22;;
37955;SDS011;23776;51.592;7.180;2023-08-24T00:44:43;9.30;;;4.95;;
37955;SDS011;23776;51.592;7.180;2023-08-24T00:47:08;12.77;;;5.15;;
37955;SDS011;23776;51.592;7.180;2023-08-24T00:49:35;8.95;;;5.15;;
37955;SDS011;23776;51.592;7.180;2023-08-24T00:52:00;13.23;;;5.82;;
37955;SDS011;23776;51.592;7.180;2023-08-24T00:54:26;13.13;;;6.32;;
37955;SDS011;23776;51.592;7.180;2023-08-24T00:56:52;9.68;;;5.88;;
37955;SDS011;23776;51.592;7.180;2023-08-24T00:59:19;10.15;;;5.72;;
37955;SDS011;23776;51.592;7.180;2023-08-24T01:01:45;15.93;;;5.93;;
37955;SDS011;23776;51.592;7.180;2023-08-24T01:04:12;15.20;;;6.40;;
37955;SDS011;23776;51.592;7.180;2023-08-24T01:06:38;13.02;;;5.95;;
37955;SDS011;23776;51.592;7.180;2023-08-24T01:09:04;10.02;;;5.95;;
37955;SDS011;23776;51.592;7.180;2023-08-24T01:14:23;11.63;;;6.38;;
37955;SDS011;23776;51.592;7.180;2023-08-24T01:16:58;12.15;;;7.45;;
37955;SDS011;23776;51.592;7.180;2023-08-24T01:27:41;12.32;;;6.82;;
37955;SDS011;23776;51.592;7.180;2023-08-24T01:30:08;11.48;;;6.97;;
37955;SDS011;23776;51.592;7.180;2023-08-24T01:32:34;9.00;;;5.88;;
37955;SDS011;23776;51.592;7.180;2023-08-24T01:35:02;11.45;;;7.22;;
37955;SDS011;23776;51.592;7.180;2023-08-24T01:37:30;11.30;;;7.68;;
37955;SDS011;23776;51.592;7.180;2023-08-24T01:45:22;14.02;;;8.30;;
37955;SDS011;23776;51.592;7.180;2023-08-24T01:47:49;16.88;;;7.72;;
37955;SDS011;23776;51.592;7.180;2023-08-24T01:50:17;16.80;;;8.57;;
37955;SDS011;23776;51.592;7.180;2023-08-24T01:52:43;15.88;;;7.63;;
37955;SDS011;23776;51.592;7.180;2023-08-24T01:55:08;16.73;;;8.45;;
37955;SDS011;23776;51.592;7.180;2023-08-24T01:57:35;14.40;;;7.70;;
37955;SDS011;23776;51.592;7.180;2023-08-24T02:00:00;14.43;;;8.75;;
37955;SDS011;23776;51.592;7.180;2023-08-24T02:02:27;17.42;;;8.50;;
37955;SDS011;23776;51.592;7.180;2023-08-24T02:04:52;13.30;;;8.85;;
37955;SDS011;23776;51.592;7.180;2023-08-24T02:07:18;14.93;;;8.60;;
37955;SDS011;23776;51.592;7.180;2023-08-24T02:09:44;17.58;;;8.63;;
37955;SDS011;23776;51.592;7.180;2023-08-24T02:12:09;19.85;;;8.90;;
37955;SDS011;23776;51.592;7.180;2023-08-24T02:14:35;14.48;;;8.70;;
37955;SDS011;23776;51.592;7.180;2023-08-24T02:17:00;18.88;;;8.88;;
37955;SDS011;23776;51.592;7.180;2023-08-24T02:19:26;19.02;;;9.18;;
37955;SDS011;23776;51.592;7.180;2023-08-24T02:21:52;20.95;;;10.98;;
37955;SDS011;23776;51.592;7.180;2023-08-24T02:24:17;20.35;;;10.60;;
37955;SDS011;23776;51.592;7.180;2023-08-24T02:26:43;14.90;;;8.38;;
37955;SDS011;23776;51.592;7.180;2023-08-24T02:29:08;22.70;;;10.18;;
37955;SDS011;23776;51.592;7.180;2023-08-24T02:31:34;18.20;;;9.68;;
37955;SDS011;23776;51.592;7.180;2023-08-24T02:33:59;20.48;;;10.50;;
37955;SDS011;23776;51.592;7.180;2023-08-24T02:36:25;15.85;;;9.98;;
37955;SDS011;23776;51.592;7.180;2023-08-24T02:38:51;15.85;;;8.88;;
37955;SDS011;23776;51.592;7.180;2023-08-24T02:41:16;14.48;;;9.68;;
37955;SDS011;23776;51.592;7.180;2023-08-24T02:43:42;20.23;;;10.07;;
37955;SDS011;23776;51.592;7.180;2023-08-24T02:46:08;20.92;;;10.55;;
37955;SDS011;23776;51.592;7.180;2023-08-24T02:48:34;14.90;;;9.65;;
37955;SDS011;23776;51.592;7.180;2023-08-24T02:51:01;17.60;;;9.55;;
37955;SDS011;23776;51.592;7.180;2023-08-24T02:53:28;18.98;;;10.65;;
37955;SDS011;23776;51.592;7.180;2023-08-24T02:55:54;21.23;;;11.93;;
37955;SDS011;23776;51.592;7.180;2023-08-24T02:58:20;18.10;;;10.98;;
37955;SDS011;23776;51.592;7.180;2023-08-24T03:00:46;22.58;;;10.43;;
37955;SDS011;23776;51.592;7.180;2023-08-24T03:03:13;16.80;;;10.98;;
37955;SDS011;23776;51.592;7.180;2023-08-24T03:05:39;16.17;;;10.25;;
37955;SDS011;23776;51.592;7.180;2023-08-24T03:08:05;22.20;;;10.65;;
37955;SDS011;23776;51.592;7.180;2023-08-24T03:10:31;18.80;;;10.20;;
37955;SDS011;23776;51.592;7.180;2023-08-24T03:13:00;20.95;;;11.85;;
37955;SDS011;23776;51.592;7.180;2023-08-24T03:15:25;16.10;;;10.45;;
37955;SDS011;23776;51.592;7.180;2023-08-24T03:17:51;24.42;;;12.07;;
37955;SDS011;23776;51.592;7.180;2023-08-24T03:20:17;19.38;;;12.00;;
37955;SDS011;23776;51.592;7.180;2023-08-24T03:22:43;21.52;;;11.18;;
37955;SDS011;23776;51.592;7.180;2023-08-24T03:25:09;16.33;;;10.32;;
37955;SDS011;23776;51.592;7.180;2023-08-24T03:27:35;18.13;;;11.18;;
37955;SDS011;23776;51.592;7.180;2023-08-24T03:30:00;21.67;;;12.10;;
37955;SDS011;23776;51.592;7.180;2023-08-24T03:32:29;18.88;;;11.93;;
37955;SDS011;23776;51.592;7.180;2023-08-24T03:34:58;15.63;;;11.00;;
37955;SDS011;23776;51.592;7.180;2023-08-24T03:37:24;19.52;;;11.20;;
37955;SDS011;23776;51.592;7.180;2023-08-24T03:39:50;16.63;;;10.70;;
37955;SDS011;23776;51.592;7.180;2023-08-24T03:42:16;17.75;;;11.00;;
37955;SDS011;23776;51.592;7.180;2023-08-24T03:44:41;20.33;;;11.40;;
37955;SDS011;23776;51.592;7.180;2023-08-24T03:47:07;21.45;;;12.35;;
37955;SDS011;23776;51.592;7.180;2023-08-24T03:49:33;23.75;;;11.95;;
37955;SDS011;23776;51.592;7.180;2023-08-24T03:51:59;20.70;;;12.35;;
37955;SDS011;23776;51.592;7.180;2023-08-24T03:54:25;19.42;;;12.95;;
37955;SDS011;23776;51.592;7.180;2023-08-24T03:56:50;21.48;;;12.88;;
37955;SDS011;23776;51.592;7.180;2023-08-24T03:59:16;23.45;;;13.05;;
37955;SDS011;23776;51.592;7.180;2023-08-24T04:01:42;21.67;;;13.52;;
37955;SDS011;23776;51.592;7.180;2023-08-24T04:04:07;21.48;;;13.18;;
37955;SDS011;23776;51.592;7.180;2023-08-24T04:06:33;22.42;;;12.00;;
37955;SDS011;23776;51.592;7.180;2023-08-24T04:08:58;17.13;;;10.80;;
37955;SDS011;23776;51.592;7.180;2023-08-24T04:11:24;18.58;;;11.27;;
37955;SDS011;23776;51.592;7.180;2023-08-24T04:13:50;19.50;;;11.63;;
37955;SDS011;23776;51.592;7.180;2023-08-24T04:16:15;17.95;;;12.55;;
37955;SDS011;23776;51.592;7.180;2023-08-24T04:18:41;18.65;;;11.48;;
37955;SDS011;23776;51.592;7.180;2023-08-24T04:21:06;21.33;;;12.98;;
37955;SDS011;23776;51.592;7.180;2023-08-24T04:23:32;23.52;;;12.95;;
37955;SDS011;23776;51.592;7.180;2023-08-24T04:25:58;25.05;;;13.65;;
37955;SDS011;23776;51.592;7.180;2023-08-24T04:28:23;20.73;;;13.55;;
37955;SDS011;23776;51.592;7.180;2023-08-24T04:30:54;19.25;;;13.27;;
37955;SDS011;23776;51.592;7.180;2023-08-24T04:33:22;22.38;;;13.68;;
37955;SDS011;23776;51.592;7.180;2023-08-24T04:35:48;22.85;;;14.38;;
37955;SDS011;23776;51.592;7.180;2023-08-24T04:38:15;19.92;;;14.45;;
37955;SDS011;23776;51.592;7.180;2023-08-24T04:40:45;26.98;;;15.00;;
37955;SDS011;23776;51.592;7.180;2023-08-24T04:43:17;25.23;;;15.05;;
37955;SDS011;23776;51.592;7.180;2023-08-24T04:45:45;21.52;;;14.38;;
37955;SDS011;23776;51.592;7.180;2023-08-24T04:48:12;19.65;;;14.75;;
37955;SDS011;23776;51.592;7.180;2023-08-24T04:50:37;22.27;;;15.40;;
37955;SDS011;23776;51.592;7.180;2023-08-24T04:53:03;26.98;;;15.77;;
37955;SDS011;23776;51.592;7.180;2023-08-24T04:55:28;22.90;;;15.55;;
37955;SDS011;23776;51.592;7.180;2023-08-24T04:57:54;23.48;;;14.10;;
37955;SDS011;23776;51.592;7.180;2023-08-24T05:00:20;21.25;;;14.82;;
37955;SDS011;23776;51.592;7.180;2023-08-24T05:02:45;30.40;;;16.58;;
37955;SDS011;23776;51.592;7.180;2023-08-24T05:05:11;30.00;;;18.77;;
37955;SDS011;23776;51.592;7.180;2023-08-24T05:07:39;26.38;;;18.58;;
37955;SDS011;23776;51.592;7.180;2023-08-24T05:10:05;29.52;;;20.15;;
37955;SDS011;23776;51.592;7.180;2023-08-24T05:12:31;29.13;;;19.30;;
37955;SDS011;23776;51.592;7.180;2023-08-24T05:14:58;29.58;;;17.67;;
37955;SDS011;23776;51.592;7.180;2023-08-24T05:17:24;31.35;;;20.05;;
37955;SDS011;23776;51.592;7.180;2023-08-24T05:19:52;36.95;;;20.23;;
37955;SDS011;23776;51.592;7.180;2023-08-24T05:22:18;32.97;;;20.35;;
37955;SDS011;23776;51.592;7.180;2023-08-24T05:24:44;31.15;;;17.38;;
37955;SDS011;23776;51.592;7.180;2023-08-24T05:27:10;35.60;;;19.15;;
37955;SDS011;23776;51.592;7.180;2023-08-24T05:29:35;27.80;;;16.52;;
37955;SDS011;23776;51.592;7.180;2023-08-24T05:32:01;26.90;;;16.40;;
37955;SDS011;23776;51.592;7.180;2023-08-24T05:34:27;23.65;;;15.38;;
37955;SDS011;23776;51.592;7.180;2023-08-24T05:36:53;26.20;;;15.18;;
37955;SDS011;23776;51.592;7.180;2023-08-24T05:39:19;19.90;;;13.07;;
37955;SDS011;23776;51.592;7.180;2023-08-24T05:41:44;24.80;;;14.52;;
37955;SDS011;23776;51.592;7.180;2023-08-24T05:44:10;24.58;;;14.68;;
37955;SDS011;23776;51.592;7.180;2023-08-24T05:46:36;25.52;;;15.13;;
37955;SDS011;23776;51.592;7.180;2023-08-24T05:49:01;28.58;;;14.80;;
37955;SDS011;23776;51.592;7.180;2023-08-24T05:51:27;19.27;;;13.05;;
37955;SDS011;23776;51.592;7.180;2023-08-24T05:53:53;21.30;;;13.38;;
37955;SDS011;23776;51.592;7.180;2023-08-24T05:56:24;24.40;;;13.88;;
37955;SDS011;23776;51.592;7.180;2023-08-24T05:58:49;20.08;;;12.52;;
37955;SDS011;23776;51.592;7.180;2023-08-24T06:01:15;16.88;;;12.65;;
37955;SDS011;23776;51.592;7.180;2023-08-24T06:03:41;19.45;;;12.00;;
37955;SDS011;23776;51.592;7.180;2023-08-24T06:06:06;22.20;;;12.88;;
37955;SDS011;23776;51.592;7.180;2023-08-24T06:08:34;17.95;;;12.32;;
37955;SDS011;23776;51.592;7.180;2023-08-24T06:10:59;21.35;;;13.02;;
37955;SDS011;23776;51.592;7.180;2023-08-24T06:13:25;19.25;;;12.90;;
37955;SDS011;23776;51.592;7.180;2023-08-24T06:15:51;22.05;;;13.00;;
37955;SDS011;23776;51.592;7.180;2023-08-24T06:18:17;19.10;;;13.60;;
37955;SDS011;23776;51.592;7.180;2023-08-24T06:20:43;21.95;;;12.43;;
37955;SDS011;23776;51.592;7.180;2023-08-24T06:23:08;20.67;;;11.65;;
37955;SDS011;23776;51.592;7.180;2023-08-24T06:25:34;21.38;;;12.52;;
37955;SDS011;23776;51.592;7.180;2023-08-24T06:28:00;19.88;;;12.32;;
37955;SDS011;23776;51.592;7.180;2023-08-24T06:30:29;21.45;;;12.27;;
37955;SDS011;23776;51.592;7.180;2023-08-24T06:32:58;21.83;;;12.50;;
37955;SDS011;23776;51.592;7.180;2023-08-24T06:35:23;18.85;;;11.75;;
37955;SDS011;23776;51.592;7.180;2023-08-24T06:37:49;23.83;;;12.82;;
37955;SDS011;23776;51.592;7.180;2023-08-24T06:40:15;20.70;;;11.02;;
37955;SDS011;23776;51.592;7.180;2023-08-24T06:42:42;23.83;;;12.63;;
37955;SDS011;23776;51.592;7.180;2023-08-24T06:45:08;17.92;;;11.20;;
37955;SDS011;23776;51.592;7.180;2023-08-24T06:47:35;18.67;;;11.13;;
37955;SDS011;23776;51.592;7.180;2023-08-24T06:50:01;18.63;;;10.98;;
37955;SDS011;23776;51.592;7.180;2023-08-24T06:52:27;16.95;;;12.60;;
37955;SDS011;23776;51.592;7.180;2023-08-24T06:54:52;21.30;;;10.82;;
37955;SDS011;23776;51.592;7.180;2023-08-24T06:57:20;20.98;;;11.73;;
37955;SDS011;23776;51.592;7.180;2023-08-24T06:59:46;18.83;;;10.60;;
37955;SDS011;23776;51.592;7.180;2023-08-24T07:02:12;20.70;;;12.27;;
37955;SDS011;23776;51.592;7.180;2023-08-24T07:04:37;15.82;;;10.65;;
37955;SDS011;23776;51.592;7.180;2023-08-24T07:07:05;18.80;;;9.32;;
37955;SDS011;23776;51.592;7.180;2023-08-24T07:09:34;19.77;;;9.88;;
37955;SDS011;23776;51.592;7.180;2023-08-24T07:12:00;19.70;;;9.82;;
37955;SDS011;23776;51.592;7.180;2023-08-24T07:14:32;20.38;;;11.85;;
37955;SDS011;23776;51.592;7.180;2023-08-24T07:16:58;20.27;;;10.95;;
37955;SDS011;23776;51.592;7.180;2023-08-24T07:19:23;18.13;;;11.32;;
37955;SDS011;23776;51.592;7.180;2023-08-24T07:21:49;17.98;;;11.65;;
37955;SDS011;23776;51.592;7.180;2023-08-24T07:24:15;28.70;;;12.02;;
37955;SDS011;23776;51.592;7.180;2023-08-24T07:26:41;18.92;;;11.35;;
37955;SDS011;23776;51.592;7.180;2023-08-24T07:29:07;15.63;;;10.05;;
37955;SDS011;23776;51.592;7.180;2023-08-24T07:31:33;19.58;;;9.50;;
37955;SDS011;23776;51.592;7.180;2023-08-24T07:33:59;18.52;;;9.25;;
37955;SDS011;23776;51.592;7.180;2023-08-24T07:36:24;16.33;;;9.70;;
37955;SDS011;23776;51.592;7.180;2023-08-24T07:38:50;18.90;;;10.40;;
37955;SDS011;23776;51.592;7.180;2023-08-24T07:41:16;17.77;;;9.27;;
37955;SDS011;23776;51.592;7.180;2023-08-24T07:43:43;16.13;;;8.50;;
37955;SDS011;23776;51.592;7.180;2023-08-24T07:46:09;19.42;;;11.10;;
37955;SDS011;23776;51.592;7.180;2023-08-24T07:48:35;16.13;;;9.23;;
37955;SDS011;23776;51.592;7.180;2023-08-24T07:51:00;25.83;;;12.55;;
37955;SDS011;23776;51.592;7.180;2023-08-24T07:53:26;16.23;;;9.57;;
37955;SDS011;23776;51.592;7.180;2023-08-24T07:55:53;17.40;;;9.45;;
37955;SDS011;23776;51.592;7.180;2023-08-24T07:58:21;13.68;;;8.75;;
37955;SDS011;23776;51.592;7.180;2023-08-24T08:00:49;31.77;;;10.15;;
37955;SDS011;23776;51.592;7.180;2023-08-24T08:03:16;18.30;;;8.40;;
37955;SDS011;23776;51.592;7.180;2023-08-24T08:05:43;17.35;;;9.63;;
37955;SDS011;23776;51.592;7.180;2023-08-24T08:08:08;16.60;;;7.90;;
37955;SDS011;23776;51.592;7.180;2023-08-24T08:10:34;16.10;;;8.85;;
37955;SDS011;23776;51.592;7.180;2023-08-24T08:12:59;16.65;;;8.20;;
37955;SDS011;23776;51.592;7.180;2023-08-24T08:15:25;11.23;;;6.20;;
37955;SDS011;23776;51.592;7.180;2023-08-24T08:17:50;8.35;;;5.78;;
37955;SDS011;23776;51.592;7.180;2023-08-24T08:20:16;17.52;;;9.02;;
37955;SDS011;23776;51.592;7.180;2023-08-24T08:22:42;15.77;;;8.50;;
37955;SDS011;23776;51.592;7.180;2023-08-24T08:25:07;10.07;;;6.63;;
37955;SDS011;23776;51.592;7.180;2023-08-24T08:27:33;12.38;;;7.35;;
37955;SDS011;23776;51.592;7.180;2023-08-24T08:29:59;13.80;;;7.10;;
37955;SDS011;23776;51.592;7.180;2023-08-24T08:32:25;12.68;;;8.48;;
37955;SDS011;23776;51.592;7.180;2023-08-24T08:34:53;13.10;;;7.93;;
37955;SDS011;23776;51.592;7.180;2023-08-24T08:37:26;18.35;;;8.55;;
37955;SDS011;23776;51.592;7.180;2023-08-24T08:39:51;12.40;;;6.13;;
37955;SDS011;23776;51.592;7.180;2023-08-24T08:42:17;12.48;;;6.72;;
37955;SDS011;23776;51.592;7.180;2023-08-24T08:44:46;10.18;;;5.93;;
37955;SDS011;23776;51.592;7.180;2023-08-24T08:47:12;12.88;;;6.00;;
37955;SDS011;23776;51.592;7.180;2023-08-24T08:49:39;11.40;;;5.80;;
37955;SDS011;23776;51.592;7.180;2023-08-24T08:52:08;11.57;;;7.05;;
37955;SDS011;23776;51.592;7.180;2023-08-24T08:54:34;10.50;;;6.63;;
37955;SDS011;23776;51.592;7.180;2023-08-24T08:57:00;14.70;;;6.70;;
37955;SDS011;23776;51.592;7.180;2023-08-24T08:59:27;15.23;;;7.25;;
37955;SDS011;23776;51.592;7.180;2023-08-24T09:01:56;11.40;;;6.85;;
37955;SDS011;23776;51.592;7.180;2023-08-24T09:04:26;11.10;;;7.20;;
37955;SDS011;23776;51.592;7.180;2023-08-24T09:06:57;10.95;;;5.97;;
37955;SDS011;23776;51.592;7.180;2023-08-24T09:09:23;11.88;;;6.00;;
37955;SDS011;23776;51.592;7.180;2023-08-24T09:11:50;14.10;;;6.53;;
37955;SDS011;23776;51.592;7.180;2023-08-24T09:14:16;11.48;;;6.30;;
37955;SDS011;23776;51.592;7.180;2023-08-24T09:16:41;11.13;;;5.35;;
37955;SDS011;23776;51.592;7.180;2023-08-24T09:19:10;12.00;;;5.80;;
37955;SDS011;23776;51.592;7.180;2023-08-24T09:21:37;11.77;;;5.53;;
37955;SDS011;23776;51.592;7.180;2023-08-24T09:24:04;9.18;;;5.38;;
37955;SDS011;23776;51.592;7.180;2023-08-24T09:26:31;12.73;;;4.85;;
37955;SDS011;23776;51.592;7.180;2023-08-24T09:28:59;9.02;;;4.80;;
37955;SDS011;23776;51.592;7.180;2023-08-24T09:31:58;9.77;;;4.00;;
37955;SDS011;23776;51.592;7.180;2023-08-24T09:34:20;13.43;;;5.28;;
37955;SDS011;23776;51.592;7.180;2023-08-24T09:36:51;9.68;;;4.88;;
37955;SDS011;23776;51.592;7.180;2023-08-24T09:39:17;8.63;;;4.50;;
37955;SDS011;23776;51.592;7.180;2023-08-24T09:41:44;10.63;;;4.40;;
37955;SDS011;23776;51.592;7.180;2023-08-24T09:44:12;10.55;;;5.07;;
37955;SDS011;23776;51.592;7.180;2023-08-24T09:46:38;8.68;;;4.43;;
37955;SDS011;23776;51.592;7.180;2023-08-24T09:49:06;11.45;;;4.35;;
37955;SDS011;23776;51.592;7.180;2023-08-24T09:51:33;7.97;;;4.20;;
37955;SDS011;23776;51.592;7.180;2023-08-24T09:53:59;9.98;;;5.03;;
37955;SDS011;23776;51.592;7.180;2023-08-24T09:56:34;11.15;;;4.05;;
37955;SDS011;23776;51.592;7.180;2023-08-24T09:59:03;7.13;;;3.97;;
37955;SDS011;23776;51.592;7.180;2023-08-24T10:01:40;12.68;;;4.90;;
37955;SDS011;23776;51.592;7.180;2023-08-24T10:04:07;7.72;;;4.32;;
37955;SDS011;23776;51.592;7.180;2023-08-24T10:06:34;13.00;;;5.25;;
37955;SDS011;23776;51.592;7.180;2023-08-24T10:09:02;9.02;;;4.35;;
37955;SDS011;23776;51.592;7.180;2023-08-24T10:11:32;9.95;;;4.80;;
37955;SDS011;23776;51.592;7.180;2023-08-24T10:14:05;8.05;;;5.07;;
37955;SDS011;23776;51.592;7.180;2023-08-24T10:16:53;8.23;;;4.60;;
37955;SDS011;23776;51.592;7.180;2023-08-24T10:19:20;8.85;;;5.10;;
37955;SDS011;23776;51.592;7.180;2023-08-24T10:21:47;8.32;;;4.82;;
37955;SDS011;23776;51.592;7.180;2023-08-24T10:24:15;13.95;;;4.90;;
37955;SDS011;23776;51.592;7.180;2023-08-24T10:26:41;9.63;;;4.03;;
37955;SDS011;23776;51.592;7.180;2023-08-24T10:29:08;10.63;;;4.25;;
37955;SDS011;23776;51.592;7.180;2023-08-24T10:31:35;14.82;;;5.88;;
37955;SDS011;23776;51.592;7.180;2023-08-24T10:34:02;10.15;;;4.53;;
37955;SDS011;23776;51.592;7.180;2023-08-24T10:36:30;9.20;;;4.90;;
37955;SDS011;23776;51.592;7.180;2023-08-24T10:38:56;12.77;;;4.05;;
37955;SDS011;23776;51.592;7.180;2023-08-24T10:41:27;11.05;;;5.32;;
37955;SDS011;23776;51.592;7.180;2023-08-24T10:43:53;9.88;;;5.30;;
37955;SDS011;23776;51.592;7.180;2023-08-24T10:46:34;9.68;;;4.45;;
37955;SDS011;23776;51.592;7.180;2023-08-24T10:49:03;15.30;;;5.05;;
37955;SDS011;23776;51.592;7.180;2023-08-24T10:51:29;7.72;;;4.45;;
37955;SDS011;23776;51.592;7.180;2023-08-24T10:53:57;10.68;;;5.10;;
37955;SDS011;23776;51.592;7.180;2023-08-24T10:59:16;7.78;;;4.20;;
37955;SDS011;23776;51.592;7.180;2023-08-24T11:01:43;13.93;;;4.53;;
37955;SDS011;23776;51.592;7.180;2023-08-24T11:04:23;11.75;;;4.13;;
37955;SDS011;23776;51.592;7.180;2023-08-24T11:06:51;8.95;;;4.15;;
37955;SDS011;23776;51.592;7.180;2023-08-24T11:09:18;11.32;;;4.20;;
37955;SDS011;23776;51.592;7.180;2023-08-24T11:12:00;9.20;;;4.00;;
37955;SDS011;23776;51.592;7.180;2023-08-24T11:14:28;8.85;;;4.32;;
37955;SDS011;23776;51.592;7.180;2023-08-24T11:17:16;7.85;;;3.60;;
37955;SDS011;23776;51.592;7.180;2023-08-24T11:19:50;10.52;;;4.13;;
37955;SDS011;23776;51.592;7.180;2023-08-24T11:22:17;8.20;;;3.78;;
37955;SDS011;23776;51.592;7.180;2023-08-24T11:24:43;7.78;;;3.40;;
37955;SDS011;23776;51.592;7.180;2023-08-24T11:27:09;9.20;;;3.78;;
37955;SDS011;23776;51.592;7.180;2023-08-24T11:29:35;5.75;;;3.75;;
37955;SDS011;23776;51.592;7.180;2023-08-24T11:32:00;7.07;;;3.72;;
37955;SDS011;23776;51.592;7.180;2023-08-24T11:34:27;10.38;;;3.90;;
37955;SDS011;23776;51.592;7.180;2023-08-24T11:36:53;6.35;;;3.70;;
37955;SDS011;23776;51.592;7.180;2023-08-24T11:39:20;7.55;;;3.53;;
37955;SDS011;23776;51.592;7.180;2023-08-24T11:42:03;8.15;;;4.53;;
37955;SDS011;23776;51.592;7.180;2023-08-24T11:44:49;7.07;;;3.97;;
37955;SDS011;23776;51.592;7.180;2023-08-24T11:47:15;5.85;;;3.50;;
37955;SDS011;23776;51.592;7.180;2023-08-24T11:49:41;6.95;;;4.00;;
37955;SDS011;23776;51.592;7.180;2023-08-24T11:52:08;6.63;;;4.05;;
37955;SDS011;23776;51.592;7.180;2023-08-24T11:54:34;7.85;;;4.30;;
37955;SDS011;23776;51.592;7.180;2023-08-24T11:57:05;11.10;;;3.92;;
37955;SDS011;23776;51.592;7.180;2023-08-24T11:59:31;4.40;;;3.13;;
37955;SDS011;23776;51.592;7.180;2023-08-24T12:01:57;4.60;;;3.30;;
37955;SDS011;23776;51.592;7.180;2023-08-24T12:04:24;6.97;;;3.75;;
37955;SDS011;23776;51.592;7.180;2023-08-24T12:06:49;7.00;;;3.22;;
37955;SDS011;23776;51.592;7.180;2023-08-24T12:09:15;6.63;;;3.25;;
37955;SDS011;23776;51.592;7.180;2023-08-24T12:11:41;8.40;;;4.32;;
37955;SDS011;23776;51.592;7.180;2023-08-24T12:14:07;5.68;;;3.00;;
37955;SDS011;23776;51.592;7.180;2023-08-24T12:16:34;4.65;;;2.80;;
37955;SDS011;23776;51.592;7.180;2023-08-24T12:19:01;5.88;;;2.85;;
37955;SDS011;23776;51.592;7.180;2023-08-24T12:21:29;9.55;;;2.88;;
37955;SDS011;23776;51.592;7.180;2023-08-24T12:26:22;6.97;;;2.90;;
37955;SDS011;23776;51.592;7.180;2023-08-24T12:28:51;8.13;;;3.13;;
37955;SDS011;23776;51.592;7.180;2023-08-24T12:31:17;5.70;;;2.83;;
37955;SDS011;23776;51.592;7.180;2023-08-24T12:36:32;4.82;;;2.88;;
37955;SDS011;23776;51.592;7.180;2023-08-24T12:39:00;5.07;;;3.03;;
37955;SDS011;23776;51.592;7.180;2023-08-24T12:41:28;8.68;;;3.67;;
37955;SDS011;23776;51.592;7.180;2023-08-24T12:43:54;7.75;;;2.95;;
37955;SDS011;23776;51.592;7.180;2023-08-24T12:46:20;5.95;;;2.67;;
37955;SDS011;23776;51.592;7.180;2023-08-24T12:48:45;7.78;;;2.88;;
37955;SDS011;23776;51.592;7.180;2023-08-24T12:51:11;5.32;;;2.53;;
37955;SDS011;23776;51.592;7.180;2023-08-24T12:53:37;7.22;;;3.13;;
37955;SDS011;23776;51.592;7.180;2023-08-24T12:56:03;3.78;;;2.72;;
37955;SDS011;23776;51.592;7.180;2023-08-24T12:58:28;6.35;;;2.95;;
37955;SDS011;23776;51.592;7.180;2023-08-24T13:00:54;6.57;;;3.30;;
37955;SDS011;23776;51.592;7.180;2023-08-24T13:03:20;5.22;;;2.67;;
37955;SDS011;23776;51.592;7.180;2023-08-24T13:05:45;5.22;;;3.05;;
37955;SDS011;23776;51.592;7.180;2023-08-24T13:08:12;6.25;;;3.05;;
37955;SDS011;23776;51.592;7.180;2023-08-24T13:10:38;7.30;;;3.38;;
37955;SDS011;23776;51.592;7.180;2023-08-24T13:13:04;5.10;;;3.13;;
37955;SDS011;23776;51.592;7.180;2023-08-24T13:15:30;9.13;;;3.10;;
37955;SDS011;23776;51.592;7.180;2023-08-24T13:17:55;9.65;;;3.60;;
37955;SDS011;23776;51.592;7.180;2023-08-24T13:20:22;6.78;;;3.13;;
37955;SDS011;23776;51.592;7.180;2023-08-24T13:22:48;8.25;;;2.92;;
37955;SDS011;23776;51.592;7.180;2023-08-24T13:25:13;8.52;;;3.22;;
37955;SDS011;23776;51.592;7.180;2023-08-24T13:27:39;10.00;;;4.38;;
37955;SDS011;23776;51.592;7.180;2023-08-24T13:30:05;7.82;;;3.53;;
37955;SDS011;23776;51.592;7.180;2023-08-24T13:32:31;7.22;;;3.10;;
37955;SDS011;23776;51.592;7.180;2023-08-24T13:34:57;8.30;;;3.30;;
37955;SDS011;23776;51.592;7.180;2023-08-24T13:37:23;9.63;;;3.33;;
37955;SDS011;23776;51.592;7.180;2023-08-24T13:39:49;8.05;;;3.25;;
37955;SDS011;23776;51.592;7.180;2023-08-24T13:42:16;7.57;;;3.10;;
37955;SDS011;23776;51.592;7.180;2023-08-24T13:44:41;5.43;;;3.15;;
37955;SDS011;23776;51.592;7.180;2023-08-24T13:47:08;6.20;;;3.03;;
37955;SDS011;23776;51.592;7.180;2023-08-24T13:49:33;9.40;;;3.25;;
37955;SDS011;23776;51.592;7.180;2023-08-24T13:51:59;7.00;;;3.63;;
37955;SDS011;23776;51.592;7.180;2023-08-24T13:54:25;6.25;;;3.05;;
37955;SDS011;23776;51.592;7.180;2023-08-24T13:56:51;8.35;;;3.50;;
37955;SDS011;23776;51.592;7.180;2023-08-24T13:59:19;10.73;;;3.67;;
37955;SDS011;23776;51.592;7.180;2023-08-24T14:01:46;8.65;;;3.05;;
37955;SDS011;23776;51.592;7.180;2023-08-24T14:04:11;6.07;;;3.55;;
37955;SDS011;23776;51.592;7.180;2023-08-24T14:06:37;8.15;;;3.22;;
37955;SDS011;23776;51.592;7.180;2023-08-24T14:09:03;6.38;;;3.35;;
37955;SDS011;23776;51.592;7.180;2023-08-24T14:11:29;7.70;;;3.20;;
37955;SDS011;23776;51.592;7.180;2023-08-24T14:13:55;8.98;;;3.28;;
37955;SDS011;23776;51.592;7.180;2023-08-24T14:16:20;11.10;;;3.90;;
37955;SDS011;23776;51.592;7.180;2023-08-24T14:18:46;11.35;;;3.88;;
37955;SDS011;23776;51.592;7.180;2023-08-24T14:21:13;6.95;;;3.33;;
37955;SDS011;23776;51.592;7.180;2023-08-24T14:23:39;9.63;;;3.08;;
37955;SDS011;23776;51.592;7.180;2023-08-24T14:26:05;9.73;;;3.95;;
37955;SDS011;23776;51.592;7.180;2023-08-24T14:31:14;14.45;;;3.88;;
37955;SDS011;23776;51.592;7.180;2023-08-24T14:33:39;12.88;;;3.60;;
37955;SDS011;23776;51.592;7.180;2023-08-24T14:36:05;8.25;;;3.97;;
37955;SDS011;23776;51.592;7.180;2023-08-24T14:38:31;10.20;;;3.72;;
37955;SDS011;23776;51.592;7.180;2023-08-24T14:40:56;9.10;;;3.88;;
37955;SDS011;23776;51.592;7.180;2023-08-24T14:43:22;9.25;;;3.92;;
37955;SDS011;23776;51.592;7.180;2023-08-24T14:45:47;10.82;;;4.43;;
37955;SDS011;23776;51.592;7.180;2023-08-24T14:48:13;7.22;;;3.47;;
37955;SDS011;23776;51.592;7.180;2023-08-24T14:50:39;10.18;;;3.63;;
37955;SDS011;23776;51.592;7.180;2023-08-24T14:53:05;8.15;;;3.40;;
37955;SDS011;23776;51.592;7.180;2023-08-24T14:55:31;10.07;;;3.30;;
37955;SDS011;23776;51.592;7.180;2023-08-24T14:57:56;7.10;;;3.28;;